Terminal Aerodrome Forecast
Issued by NWS Flagstaff, AZ

Home | Current Version | Previous Version | Text Only | Print | Product List | Glossary On
Versions: 1 2 3 4 5 6 7 8 9 10 11 12
814
FTUS45 KFGZ 181730
TAFINW
TAF
KINW 181730Z 1818/1918 18010G20KT P6SM SCT250
     FM182100 21025G35KT P6SM FEW050 SCT250
     FM190700 20026G38KT P6SM BKN045
     FM191400 20035G50KT P6SM VCSH BKN035=

USA.gov is the U.S. government's official web portal to all federal, state and local government web resources and services.